Time;durP1;ratioP1;P1;durP2;ratioP2;P2;SDS_P1;SDS_P2;PMS_P1;PMS_P2;Temp;Humidity;BMP_temperature;BMP_pressure;BME280_temperature;BME280_humidity;BME280_pressure;Samples;Min_cycle;Max_cycle;Signal;HPM_P1;HPM_P2
2023/08/17 00:00:26;;;;;;;0.10;0.10;;;;;;;;;;6218829;22;20376;-92
2023/08/17 00:02:52;;;;;;;0.22;0.22;;;;;;;;;;6243634;22;20087;-92
2023/08/17 00:05:19;;;;;;;0.20;0.20;;;;;;;;;;6243748;23;20012;-94
2023/08/17 00:07:45;;;;;;;0.20;0.20;;;;;;;;;;6218665;22;20327;-94
2023/08/17 00:10:11;;;;;;;0.20;0.20;;;;;;;;;;6217986;22;20027;-92
2023/08/17 00:12:37;;;;;;;0.20;0.20;;;;;;;;;;6217209;22;20016;-92
2023/08/17 00:15:03;;;;;;;0.20;0.20;;;;;;;;;;6218426;22;20020;-91
2023/08/17 00:17:30;;;;;;;0.10;0.10;;;;;;;;;;6217845;22;20016;-91
2023/08/17 00:19:56;;;;;;;0.10;0.10;;;;;;;;;;6218379;22;20051;-91
2023/08/17 00:22:25;;;;;;;0.10;0.10;;;;;;;;;;6218260;22;20016;-91
2023/08/17 00:24:51;;;;;;;0.20;0.20;;;;;;;;;;6218039;22;20017;-91
2023/08/17 00:27:17;;;;;;;0.10;0.10;;;;;;;;;;6218156;22;20020;-92
2023/08/17 00:29:43;;;;;;;0.20;0.20;;;;;;;;;;6217325;23;20027;-93
2023/08/17 00:32:09;;;;;;;0.15;0.15;;;;;;;;;;6217294;22;20069;-92
2023/08/17 00:34:39;;;;;;;0.10;0.10;;;;;;;;;;6243585;22;20360;-92
2023/08/17 00:37:05;;;;;;;0.13;0.13;;;;;;;;;;6218051;22;20016;-90
2023/08/17 00:39:32;;;;;;;0.22;0.22;;;;;;;;;;6218244;22;20449;-93
2023/08/17 00:42:25;;;;;;;0.20;0.20;;;;;;;;;;6217145;22;20055;-93
2023/08/17 00:44:51;;;;;;;0.10;0.10;;;;;;;;;;6217812;23;20012;-91
2023/08/17 00:47:17;;;;;;;0.10;0.10;;;;;;;;;;6217300;22;20120;-93
2023/08/17 00:49:45;;;;;;;0.30;0.30;;;;;;;;;;6217626;22;20023;-94
2023/08/17 00:52:12;;;;;;;0.10;0.10;;;;;;;;;;6244086;22;20026;-95
2023/08/17 00:54:38;;;;;;;0.20;0.20;;;;;;;;;;6217684;22;20016;-93
2023/08/17 00:57:06;;;;;;;0.20;0.20;;;;;;;;;;6217724;22;20062;-92
2023/08/17 00:59:35;;;;;;;0.10;0.10;;;;;;;;;;6219780;22;20342;-96
2023/08/17 01:02:01;;;;;;;0.30;0.30;;;;;;;;;;6222688;22;20012;-93
2023/08/17 01:04:27;;;;;;;0.20;0.20;;;;;;;;;;6222931;22;20579;-90
2023/08/17 01:06:53;;;;;;;0.20;0.20;;;;;;;;;;6222748;22;20462;-92
2023/08/17 01:09:22;;;;;;;0.15;0.15;;;;;;;;;;6223373;22;20019;-91
2023/08/17 01:12:05;;;;;;;0.20;0.20;;;;;;;;;;6221508;22;20019;-93
2023/08/17 01:14:37;;;;;;;0.30;0.30;;;;;;;;;;6197778;22;20015;-93
2023/08/17 01:17:07;;;;;;;0.20;0.20;;;;;;;;;;6222279;22;20518;-91
2023/08/17 01:19:33;;;;;;;0.20;0.20;;;;;;;;;;6247455;22;20018;-92
2023/08/17 01:22:04;;;;;;;0.20;0.20;;;;;;;;;;6221999;22;20016;-94
2023/08/17 01:24:30;;;;;;;0.20;0.20;;;;;;;;;;6222478;22;20060;-93
2023/08/17 01:26:56;;;;;;;0.13;0.13;;;;;;;;;;6222136;22;20020;-92
2023/08/17 01:29:23;;;;;;;0.30;0.30;;;;;;;;;;6222881;22;20022;-90
2023/08/17 01:31:52;;;;;;;0.20;0.20;;;;;;;;;;6221739;22;20502;-92
2023/08/17 01:34:20;;;;;;;0.32;0.32;;;;;;;;;;6222161;22;20034;-92
2023/08/17 01:36:50;;;;;;;0.30;0.30;;;;;;;;;;6196871;22;20913;-91
2023/08/17 01:39:17;;;;;;;0.20;0.20;;;;;;;;;;6221723;22;20050;-91
2023/08/17 01:41:43;;;;;;;0.20;0.20;;;;;;;;;;6221732;22;20034;-93
2023/08/17 01:44:10;;;;;;;0.13;0.13;;;;;;;;;;6222066;22;20043;-92
2023/08/17 01:46:36;;;;;;;0.20;0.20;;;;;;;;;;6222583;22;20015;-92
2023/08/17 01:49:02;;;;;;;0.20;0.20;;;;;;;;;;6221754;22;20011;-93
2023/08/17 01:51:28;;;;;;;0.20;0.20;;;;;;;;;;6221998;22;20020;-91
2023/08/17 01:53:54;;;;;;;0.20;0.20;;;;;;;;;;6246863;22;20016;-91
2023/08/17 01:56:20;;;;;;;0.10;0.10;;;;;;;;;;6221985;22;20034;-91
2023/08/17 01:58:55;;;;;;;0.10;0.10;;;;;;;;;;6200303;22;20011;-93
2023/08/17 02:01:21;;;;;;;0.30;0.30;;;;;;;;;;6216988;22;20048;-92
2023/08/17 02:03:47;;;;;;;0.30;0.30;;;;;;;;;;6216683;22;20016;-90
2023/08/17 02:06:33;;;;;;;0.20;0.20;;;;;;;;;;6216774;23;20095;-91
2023/08/17 02:08:59;;;;;;;0.20;0.20;;;;;;;;;;6241696;23;20023;-91
2023/08/17 02:11:29;;;;;;;0.10;0.10;;;;;;;;;;6192095;22;20503;-92
2023/08/17 02:13:55;;;;;;;0.30;0.30;;;;;;;;;;6192135;22;20056;-92
2023/08/17 02:16:21;;;;;;;0.17;0.17;;;;;;;;;;6216027;22;20058;-91
2023/08/17 02:18:47;;;;;;;0.20;0.20;;;;;;;;;;6216706;22;20441;-91
2023/08/17 02:21:13;;;;;;;0.10;0.10;;;;;;;;;;6217120;22;20095;-92
2023/08/17 02:23:39;;;;;;;0.30;0.30;;;;;;;;;;6216092;22;20024;-90
2023/08/17 02:26:05;;;;;;;0.20;0.20;;;;;;;;;;6218178;22;20023;-92
2023/08/17 02:28:31;;;;;;;0.30;0.30;;;;;;;;;;6243393;22;20055;-96
2023/08/17 02:31:00;;;;;;;0.15;0.15;;;;;;;;;;6217668;22;20020;-91
2023/08/17 02:33:28;;;;;;;0.20;0.20;;;;;;;;;;6217589;22;20044;-93
2023/08/17 02:35:54;;;;;;;0.10;0.10;;;;;;;;;;6217597;22;20069;-93
2023/08/17 02:38:20;;;;;;;0.25;0.25;;;;;;;;;;6217683;22;20020;-90
2023/08/17 02:40:46;;;;;;;0.20;0.20;;;;;;;;;;6193033;22;20016;-90
2023/08/17 02:43:12;;;;;;;0.30;0.30;;;;;;;;;;6217565;22;20384;-92
2023/08/17 02:45:38;;;;;;;0.17;0.17;;;;;;;;;;6217886;22;20027;-93
2023/08/17 02:48:04;;;;;;;0.20;0.20;;;;;;;;;;6217603;22;20020;-92
2023/08/17 02:50:30;;;;;;;0.20;0.20;;;;;;;;;;6217828;22;20015;-92
2023/08/17 02:52:59;;;;;;;0.20;0.20;;;;;;;;;;6243254;22;20450;-92
2023/08/17 02:55:25;;;;;;;0.22;0.22;;;;;;;;;;6243306;22;20457;-91
2023/08/17 02:57:51;;;;;;;0.30;0.30;;;;;;;;;;6217792;22;20020;-92
2023/08/17 03:00:18;;;;;;;0.20;0.20;;;;;;;;;;6242938;22;20020;-94
2023/08/17 03:02:44;;;;;;;0.13;0.13;;;;;;;;;;6217408;22;20016;-91
2023/08/17 03:05:10;;;;;;;0.10;0.10;;;;;;;;;;6217313;22;20066;-91
2023/08/17 03:07:36;;;;;;;0.17;0.17;;;;;;;;;;6242726;22;20016;-92
2023/08/17 03:10:02;;;;;;;0.20;0.20;;;;;;;;;;6243115;22;20493;-92
2023/08/17 03:12:29;;;;;;;0.20;0.20;;;;;;;;;;6243233;22;20020;-91
2023/08/17 03:14:55;;;;;;;0.20;0.20;;;;;;;;;;6192146;22;20024;-91
2023/08/17 03:17:21;;;;;;;0.20;0.20;;;;;;;;;;6217445;22;20099;-91
2023/08/17 03:19:50;;;;;;;0.30;0.30;;;;;;;;;;6217656;23;20016;-92
2023/08/17 03:22:17;;;;;;;0.13;0.13;;;;;;;;;;6217335;22;20013;-91
2023/08/17 03:24:44;;;;;;;0.20;0.20;;;;;;;;;;6242912;22;20016;-91
2023/08/17 03:27:10;;;;;;;0.20;0.20;;;;;;;;;;6242555;22;20015;-91
2023/08/17 03:29:36;;;;;;;0.20;0.20;;;;;;;;;;6218222;22;20020;-92
2023/08/17 03:32:02;;;;;;;0.30;0.30;;;;;;;;;;6217198;22;20055;-91
2023/08/17 03:34:28;;;;;;;0.30;0.30;;;;;;;;;;6217605;22;20020;-92
2023/08/17 03:36:54;;;;;;;0.20;0.20;;;;;;;;;;6243008;22;20020;-93
2023/08/17 03:39:20;;;;;;;0.20;0.20;;;;;;;;;;6217867;22;20055;-93
2023/08/17 03:41:47;;;;;;;0.30;0.30;;;;;;;;;;6217838;22;20016;-91
2023/08/17 03:44:16;;;;;;;0.30;0.30;;;;;;;;;;6242932;22;20047;-92
2023/08/17 03:46:42;;;;;;;0.10;0.10;;;;;;;;;;6217512;22;20016;-93
2023/08/17 03:49:09;;;;;;;0.20;0.20;;;;;;;;;;6242759;22;20000;-91
2023/08/17 03:51:35;;;;;;;0.20;0.20;;;;;;;;;;6217624;22;20017;-96
2023/08/17 03:54:01;;;;;;;0.20;0.20;;;;;;;;;;6217439;22;20446;-91
2023/08/17 03:56:27;;;;;;;0.10;0.10;;;;;;;;;;6241754;22;20016;-90
2023/08/17 03:59:16;;;;;;;0.20;0.20;;;;;;;;;;6216965;22;20012;-91
2023/08/17 04:01:43;;;;;;;0.30;0.30;;;;;;;;;;6191445;22;20020;-91
2023/08/17 04:04:09;;;;;;;0.10;0.10;;;;;;;;;;6216894;23;20016;-90
2023/08/17 04:06:36;;;;;;;0.10;0.10;;;;;;;;;;6192328;23;20016;-91
2023/08/17 04:09:02;;;;;;;0.20;0.20;;;;;;;;;;6217166;23;20013;-92
2023/08/17 04:11:28;;;;;;;0.30;0.30;;;;;;;;;;6193520;23;20890;-93
2023/08/17 04:14:08;;;;;;;0.15;0.15;;;;;;;;;;6193746;23;20016;-91
2023/08/17 04:16:35;;;;;;;0.20;0.20;;;;;;;;;;6193054;22;20042;-91
2023/08/17 04:19:19;;;;;;;0.20;0.20;;;;;;;;;;6217382;23;20048;-92
2023/08/17 04:21:45;;;;;;;0.30;0.30;;;;;;;;;;6217738;23;20012;-91
2023/08/17 04:24:11;;;;;;;0.10;0.10;;;;;;;;;;6218437;23;20017;-92
2023/08/17 04:26:42;;;;;;;0.10;0.10;;;;;;;;;;6217900;23;20012;-92
2023/08/17 04:29:08;;;;;;;0.10;0.10;;;;;;;;;;6192191;22;20146;-92
2023/08/17 04:31:34;;;;;;;0.38;0.38;;;;;;;;;;6192669;23;20045;-92
2023/08/17 04:34:00;;;;;;;0.20;0.20;;;;;;;;;;6218321;23;20016;-93
2023/08/17 04:36:28;;;;;;;0.28;0.28;;;;;;;;;;6192531;23;20022;-93
2023/08/17 04:38:54;;;;;;;0.30;0.30;;;;;;;;;;6168711;23;20446;-91
2023/08/17 04:41:20;;;;;;;0.10;0.10;;;;;;;;;;6218303;23;20081;-91
2023/08/17 04:43:49;;;;;;;0.20;0.20;;;;;;;;;;6191790;23;20041;-91
2023/08/17 04:46:16;;;;;;;0.30;0.30;;;;;;;;;;6192347;23;20023;-91
2023/08/17 04:48:42;;;;;;;0.20;0.20;;;;;;;;;;6191888;23;20538;-90
2023/08/17 04:51:09;;;;;;;0.13;0.13;;;;;;;;;;6192413;23;20031;-92
2023/08/17 04:53:37;;;;;;;0.10;0.10;;;;;;;;;;6192171;23;20012;-91
2023/08/17 04:56:04;;;;;;;0.10;0.10;;;;;;;;;;6192223;23;20404;-93
2023/08/17 04:58:31;;;;;;;0.20;0.20;;;;;;;;;;6192077;23;20027;-91
2023/08/17 05:00:57;;;;;;;0.30;0.30;;;;;;;;;;6325575;22;20073;-91
2023/08/17 05:03:26;;;;;;;0.20;0.20;;;;;;;;;;6350883;22;20440;-92
2023/08/17 05:05:53;;;;;;;0.10;0.10;;;;;;;;;;6350931;22;20016;-91
2023/08/17 05:08:21;;;;;;;0.15;0.15;;;;;;;;;;6350828;22;20045;-92
2023/08/17 05:10:48;;;;;;;0.10;0.10;;;;;;;;;;6350646;22;20061;-92
2023/08/17 05:13:14;;;;;;;0.10;0.10;;;;;;;;;;6350132;22;20049;-90
2023/08/17 05:15:40;;;;;;;0.30;0.30;;;;;;;;;;6350276;22;20018;-93
2023/08/17 05:18:06;;;;;;;0.40;0.40;;;;;;;;;;6325721;22;20017;-92
2023/08/17 05:20:35;;;;;;;0.10;0.10;;;;;;;;;;6350704;22;20347;-92
2023/08/17 05:23:01;;;;;;;0.28;0.28;;;;;;;;;;6350364;22;20014;-93
2023/08/17 05:25:29;;;;;;;0.20;0.20;;;;;;;;;;6324599;22;20024;-93
2023/08/17 05:27:55;;;;;;;0.20;0.20;;;;;;;;;;6350367;22;20037;-93
2023/08/17 05:30:21;;;;;;;0.20;0.20;;;;;;;;;;6350282;22;20025;-91
2023/08/17 05:32:47;;;;;;;0.25;0.25;;;;;;;;;;6375683;22;20021;-92
2023/08/17 05:35:16;;;;;;;0.30;0.30;;;;;;;;;;6351164;22;20445;-91
2023/08/17 05:37:42;;;;;;;0.20;0.20;;;;;;;;;;6350256;22;20317;-92
2023/08/17 05:40:08;;;;;;;0.10;0.10;;;;;;;;;;6351133;22;20057;-92
2023/08/17 05:42:38;;;;;;;0.20;0.20;;;;;;;;;;6377906;22;20102;-90
2023/08/17 05:45:04;;;;;;;0.30;0.30;;;;;;;;;;6350711;22;20013;-94
2023/08/17 05:47:30;;;;;;;0.20;0.20;;;;;;;;;;6350004;22;20018;-94
2023/08/17 05:49:57;;;;;;;0.35;0.35;;;;;;;;;;6350666;22;20467;-90
2023/08/17 05:52:23;;;;;;;0.25;0.25;;;;;;;;;;6349927;22;20440;-92
2023/08/17 05:54:49;;;;;;;0.20;0.20;;;;;;;;;;6350673;22;20014;-90
2023/08/17 05:57:15;;;;;;;0.13;0.13;;;;;;;;;;6350512;22;20022;-93
2023/08/17 05:59:44;;;;;;;0.30;0.30;;;;;;;;;;6349363;22;20023;-93
2023/08/17 06:02:10;;;;;;;0.30;0.30;;;;;;;;;;6217599;23;20016;-92
2023/08/17 06:04:37;;;;;;;0.20;0.20;;;;;;;;;;6218113;23;20420;-91
2023/08/17 06:07:03;;;;;;;0.30;0.30;;;;;;;;;;6193912;22;20437;-94
2023/08/17 06:09:29;;;;;;;0.20;0.20;;;;;;;;;;6217870;23;20016;-93
2023/08/17 06:11:55;;;;;;;0.20;0.20;;;;;;;;;;6217458;23;20020;-92
2023/08/17 06:14:21;;;;;;;0.10;0.10;;;;;;;;;;6217467;22;20023;-90
2023/08/17 06:16:47;;;;;;;0.10;0.10;;;;;;;;;;6218785;22;20020;-93
2023/08/17 06:19:13;;;;;;;0.20;0.20;;;;;;;;;;6218289;23;20030;-91
2023/08/17 06:21:40;;;;;;;0.20;0.20;;;;;;;;;;6219248;23;20016;-91
2023/08/17 06:24:07;;;;;;;0.00;0.00;;;;;;;;;;6243577;22;20095;-91
2023/08/17 06:26:33;;;;;;;0.25;0.25;;;;;;;;;;6218864;22;20069;-92
2023/08/17 06:28:59;;;;;;;0.20;0.20;;;;;;;;;;6243521;22;20019;-91
2023/08/17 06:31:27;;;;;;;0.20;0.20;;;;;;;;;;6218680;22;20023;-93
2023/08/17 06:33:54;;;;;;;0.10;0.10;;;;;;;;;;6219069;22;20048;-91
2023/08/17 06:36:20;;;;;;;0.20;0.20;;;;;;;;;;6219143;22;20019;-92
2023/08/17 06:38:47;;;;;;;0.20;0.20;;;;;;;;;;6218592;22;20069;-92
2023/08/17 06:41:13;;;;;;;0.17;0.17;;;;;;;;;;6219138;23;20051;-90
2023/08/17 06:43:40;;;;;;;0.20;0.20;;;;;;;;;;6219148;22;20016;-92
2023/08/17 06:46:06;;;;;;;0.20;0.20;;;;;;;;;;6218755;22;20072;-92
2023/08/17 06:48:34;;;;;;;0.20;0.20;;;;;;;;;;6243652;22;20442;-93
2023/08/17 06:51:02;;;;;;;0.10;0.10;;;;;;;;;;6217711;22;20027;-89
2023/08/17 06:53:28;;;;;;;0.20;0.20;;;;;;;;;;6194723;22;20026;-93
2023/08/17 06:55:54;;;;;;;0.20;0.20;;;;;;;;;;6194288;23;20489;-89
2023/08/17 06:58:20;;;;;;;0.17;0.17;;;;;;;;;;6219158;22;20016;-91
2023/08/17 07:00:47;;;;;;;0.10;0.10;;;;;;;;;;6218465;22;20012;-91
2023/08/17 07:03:13;;;;;;;0.10;0.10;;;;;;;;;;6218855;22;20016;-90
2023/08/17 07:05:40;;;;;;;0.20;0.20;;;;;;;;;;6220913;23;20510;-92
2023/08/17 07:08:06;;;;;;;0.20;0.20;;;;;;;;;;6219657;22;20357;-92
2023/08/17 07:10:33;;;;;;;0.10;0.10;;;;;;;;;;6243347;22;20016;-94
2023/08/17 07:13:03;;;;;;;0.40;0.40;;;;;;;;;;6218276;22;20020;-93
2023/08/17 07:15:42;;;;;;;0.20;0.20;;;;;;;;;;6218236;22;20051;-89
2023/08/17 07:18:08;;;;;;;0.20;0.20;;;;;;;;;;6217166;23;20040;-91
2023/08/17 07:20:34;;;;;;;0.20;0.20;;;;;;;;;;6221205;22;20078;-91
2023/08/17 07:23:02;;;;;;;0.10;0.10;;;;;;;;;;6219028;22;20142;-94
2023/08/17 07:25:28;;;;;;;0.22;0.22;;;;;;;;;;6219806;22;20039;-93
2023/08/17 07:27:54;;;;;;;0.20;0.20;;;;;;;;;;6219847;22;20031;-90
2023/08/17 07:30:20;;;;;;;0.20;0.20;;;;;;;;;;6219073;22;20067;-91
2023/08/17 07:32:46;;;;;;;0.10;0.10;;;;;;;;;;6217834;22;20017;-90
2023/08/17 07:35:12;;;;;;;0.10;0.10;;;;;;;;;;6215192;22;20433;-87
2023/08/17 07:37:38;;;;;;;0.20;0.20;;;;;;;;;;6215112;22;20020;-87
2023/08/17 07:40:05;;;;;;;0.20;0.20;;;;;;;;;;6240418;23;20013;-88
2023/08/17 07:42:31;;;;;;;0.20;0.20;;;;;;;;;;6217716;22;20012;-91
2023/08/17 07:45:04;;;;;;;0.10;0.10;;;;;;;;;;6221088;22;20024;-89
2023/08/17 07:47:31;;;;;;;0.10;0.10;;;;;;;;;;6220574;23;20068;-89
2023/08/17 07:49:57;;;;;;;0.20;0.20;;;;;;;;;;6218849;22;20020;-89
2023/08/17 07:52:25;;;;;;;0.10;0.10;;;;;;;;;;6244144;22;20108;-90
2023/08/17 07:54:51;;;;;;;0.20;0.20;;;;;;;;;;6218368;22;20099;-87
2023/08/17 07:57:17;;;;;;;0.20;0.20;;;;;;;;;;6218019;22;20016;-89
2023/08/17 07:59:43;;;;;;;0.15;0.15;;;;;;;;;;6219271;22;20065;-92
2023/08/17 08:02:10;;;;;;;0.20;0.20;;;;;;;;;;6191812;23;20069;-92
2023/08/17 08:04:36;;;;;;;0.10;0.10;;;;;;;;;;6218149;22;20095;-90
2023/08/17 08:07:02;;;;;;;0.20;0.20;;;;;;;;;;6244285;22;20016;-89
2023/08/17 08:09:28;;;;;;;0.10;0.10;;;;;;;;;;6217980;22;20016;-90
2023/08/17 08:11:54;;;;;;;0.20;0.20;;;;;;;;;;6242865;22;20106;-89
2023/08/17 08:14:20;;;;;;;0.10;0.10;;;;;;;;;;6193921;22;20020;-88
2023/08/17 08:16:59;;;;;;;0.10;0.10;;;;;;;;;;6242613;22;20059;-91
2023/08/17 08:19:25;;;;;;;0.17;0.17;;;;;;;;;;6217837;23;20012;-90
2023/08/17 08:21:51;;;;;;;0.40;0.40;;;;;;;;;;6219087;22;20563;-89
2023/08/17 08:24:17;;;;;;;0.20;0.20;;;;;;;;;;6218697;22;20350;-90
2023/08/17 08:26:44;;;;;;;0.13;0.13;;;;;;;;;;6243397;22;20020;-89
2023/08/17 08:29:10;;;;;;;0.20;0.20;;;;;;;;;;6217633;22;20016;-87
2023/08/17 08:31:36;;;;;;;0.30;0.30;;;;;;;;;;6241357;22;20020;-90
2023/08/17 08:34:02;;;;;;;0.15;0.15;;;;;;;;;;6217741;22;20350;-90
2023/08/17 08:36:28;;;;;;;0.13;0.13;;;;;;;;;;6218610;22;20020;-88
2023/08/17 08:38:54;;;;;;;0.20;0.20;;;;;;;;;;6243510;23;20640;-90
2023/08/17 08:41:22;;;;;;;0.20;0.20;;;;;;;;;;6218914;22;20016;-90
2023/08/17 08:43:48;;;;;;;0.30;0.30;;;;;;;;;;6217930;22;20467;-90
2023/08/17 08:46:18;;;;;;;0.10;0.10;;;;;;;;;;6243308;22;20450;-90
2023/08/17 08:48:45;;;;;;;0.20;0.20;;;;;;;;;;6219002;23;20084;-92
2023/08/17 08:51:14;;;;;;;0.20;0.20;;;;;;;;;;6243914;22;20480;-89
2023/08/17 08:53:47;;;;;;;0.20;0.20;;;;;;;;;;6217710;22;20027;-91
2023/08/17 08:56:13;;;;;;;0.20;0.20;;;;;;;;;;6243582;23;20059;-88
2023/08/17 08:58:40;;;;;;;0.20;0.20;;;;;;;;;;6219732;22;20017;-93
2023/08/17 09:01:07;;;;;;;0.10;0.10;;;;;;;;;;6217156;22;20065;-89
2023/08/17 09:03:33;;;;;;;0.30;0.30;;;;;;;;;;6220332;22;20385;-91
2023/08/17 09:05:59;;;;;;;0.20;0.20;;;;;;;;;;6245510;22;20068;-90
2023/08/17 09:08:29;;;;;;;0.20;0.20;;;;;;;;;;6220204;22;20016;-91
2023/08/17 09:10:55;;;;;;;0.17;0.17;;;;;;;;;;6220095;23;20107;-88
2023/08/17 09:13:22;;;;;;;0.15;0.15;;;;;;;;;;6219072;22;20051;-89
2023/08/17 09:15:49;;;;;;;0.20;0.20;;;;;;;;;;6217754;22;20035;-89
2023/08/17 09:18:17;;;;;;;0.17;0.17;;;;;;;;;;6216693;22;20537;-89
2023/08/17 09:20:47;;;;;;;0.10;0.10;;;;;;;;;;6217156;22;20012;-89
2023/08/17 09:23:15;;;;;;;0.20;0.20;;;;;;;;;;6236595;22;20012;-91
2023/08/17 09:25:42;;;;;;;0.10;0.10;;;;;;;;;;6218033;22;20016;-91
2023/08/17 09:28:09;;;;;;;0.20;0.20;;;;;;;;;;6216945;22;20020;-91
2023/08/17 09:30:53;;;;;;;0.15;0.15;;;;;;;;;;6218662;22;20059;-90
2023/08/17 09:33:20;;;;;;;0.10;0.10;;;;;;;;;;6218583;22;20016;-90
2023/08/17 09:35:47;;;;;;;0.20;0.20;;;;;;;;;;6219526;22;20047;-91
2023/08/17 09:38:13;;;;;;;0.28;0.28;;;;;;;;;;6217067;23;20019;-90
2023/08/17 09:40:39;;;;;;;0.10;0.10;;;;;;;;;;6218521;22;20016;-91
2023/08/17 09:43:05;;;;;;;0.20;0.20;;;;;;;;;;6217749;22;20027;-89
2023/08/17 09:45:32;;;;;;;0.20;0.20;;;;;;;;;;6217365;22;20328;-89
2023/08/17 09:48:01;;;;;;;0.10;0.10;;;;;;;;;;6216641;22;20064;-90
2023/08/17 09:50:27;;;;;;;0.00;0.00;;;;;;;;;;6217737;22;20061;-90
2023/08/17 09:52:55;;;;;;;0.10;0.10;;;;;;;;;;6216906;22;20069;-91
2023/08/17 09:55:25;;;;;;;0.20;0.20;;;;;;;;;;6217187;22;20028;-91
2023/08/17 09:57:52;;;;;;;0.20;0.20;;;;;;;;;;6214963;22;20021;-91
2023/08/17 10:00:18;;;;;;;0.10;0.10;;;;;;;;;;6220638;22;20057;-90
2023/08/17 10:02:45;;;;;;;0.20;0.20;;;;;;;;;;6217504;22;20438;-89
2023/08/17 10:05:12;;;;;;;0.10;0.10;;;;;;;;;;6218935;22;20021;-90
2023/08/17 10:07:41;;;;;;;0.13;0.13;;;;;;;;;;6244520;23;20020;-89
2023/08/17 10:10:07;;;;;;;0.10;0.10;;;;;;;;;;6217200;22;20020;-91
2023/08/17 10:12:37;;;;;;;0.10;0.10;;;;;;;;;;6217287;22;20064;-92
2023/08/17 10:15:08;;;;;;;0.20;0.20;;;;;;;;;;6216944;22;20024;-91
2023/08/17 10:17:38;;;;;;;0.20;0.20;;;;;;;;;;6216590;23;20389;-91
2023/08/17 10:20:06;;;;;;;0.20;0.20;;;;;;;;;;6217226;22;20494;-93
2023/08/17 10:22:32;;;;;;;0.10;0.10;;;;;;;;;;6218836;22;20016;-90
2023/08/17 10:24:59;;;;;;;0.20;0.20;;;;;;;;;;6218014;22;20362;-90
2023/08/17 10:27:26;;;;;;;0.30;0.30;;;;;;;;;;6217637;22;20034;-90
2023/08/17 10:29:52;;;;;;;0.10;0.10;;;;;;;;;;6216523;22;20027;-90
2023/08/17 10:32:19;;;;;;;0.10;0.10;;;;;;;;;;6214828;22;20024;-89
2023/08/17 10:34:45;;;;;;;0.10;0.10;;;;;;;;;;6216124;22;20442;-91
2023/08/17 10:37:12;;;;;;;0.20;0.20;;;;;;;;;;6218009;22;20096;-89
2023/08/17 10:39:45;;;;;;;0.10;0.10;;;;;;;;;;6217486;22;20446;-90
2023/08/17 10:42:12;;;;;;;0.10;0.10;;;;;;;;;;6218984;23;20442;-90
2023/08/17 10:44:46;;;;;;;0.30;0.30;;;;;;;;;;6216599;23;20044;-91
2023/08/17 10:47:29;;;;;;;0.10;0.10;;;;;;;;;;6219677;22;20353;-91
2023/08/17 10:50:21;;;;;;;0.10;0.10;;;;;;;;;;6219962;22;20270;-89
2023/08/17 10:52:49;;;;;;;0.10;0.10;;;;;;;;;;6218861;23;20099;-90
2023/08/17 10:55:15;;;;;;;0.10;0.10;;;;;;;;;;6219167;22;20020;-90
2023/08/17 10:57:42;;;;;;;0.10;0.10;;;;;;;;;;6245665;22;20046;-91
2023/08/17 11:00:29;;;;;;;0.10;0.10;;;;;;;;;;6245816;22;20454;-90
2023/08/17 11:02:58;;;;;;;0.25;0.25;;;;;;;;;;6220208;23;20012;-91
2023/08/17 11:05:57;;;;;;;0.13;0.13;;;;;;;;;;6246315;22;20016;-91
2023/08/17 11:08:33;;;;;;;0.20;0.20;;;;;;;;;;6222417;22;20016;-90
2023/08/17 11:11:07;;;;;;;0.20;0.20;;;;;;;;;;6220921;22;20020;-92
2023/08/17 11:13:34;;;;;;;0.10;0.10;;;;;;;;;;6220298;22;20537;-91
2023/08/17 11:16:00;;;;;;;0.10;0.10;;;;;;;;;;6220939;22;20453;-91
2023/08/17 11:18:27;;;;;;;0.20;0.20;;;;;;;;;;6245042;22;20085;-91
2023/08/17 11:20:54;;;;;;;0.20;0.20;;;;;;;;;;6220108;22;20046;-90
2023/08/17 11:23:20;;;;;;;0.13;0.13;;;;;;;;;;6219266;22;20016;-89
2023/08/17 11:25:46;;;;;;;0.20;0.20;;;;;;;;;;6218962;22;20019;-89
2023/08/17 11:28:14;;;;;;;0.25;0.25;;;;;;;;;;6244441;22;20355;-90
2023/08/17 11:30:41;;;;;;;0.20;0.20;;;;;;;;;;6217943;22;20020;-88
2023/08/17 11:33:08;;;;;;;0.10;0.10;;;;;;;;;;6218424;22;20065;-89
2023/08/17 11:35:34;;;;;;;0.30;0.30;;;;;;;;;;6219376;22;20403;-90
2023/08/17 11:38:00;;;;;;;0.10;0.10;;;;;;;;;;6218999;22;20349;-89
2023/08/17 11:40:27;;;;;;;0.20;0.20;;;;;;;;;;6243921;22;20016;-90
2023/08/17 11:42:53;;;;;;;0.20;0.20;;;;;;;;;;6219235;23;20012;-93
2023/08/17 11:45:19;;;;;;;0.10;0.10;;;;;;;;;;6243947;22;20019;-90
2023/08/17 11:47:49;;;;;;;0.20;0.20;;;;;;;;;;6244463;22;20028;-91
2023/08/17 11:50:15;;;;;;;0.20;0.20;;;;;;;;;;6218542;22;20084;-90
2023/08/17 11:52:41;;;;;;;0.00;0.00;;;;;;;;;;6218284;22;20016;-91
2023/08/17 11:55:12;;;;;;;0.20;0.20;;;;;;;;;;6218428;22;20016;-89
2023/08/17 11:57:39;;;;;;;0.10;0.10;;;;;;;;;;6217342;23;20024;-89
2023/08/17 12:00:06;;;;;;;0.20;0.20;;;;;;;;;;6217831;22;20017;-92
2023/08/17 12:02:37;;;;;;;0.10;0.10;;;;;;;;;;6218493;22;20040;-92
2023/08/17 12:05:06;;;;;;;0.10;0.10;;;;;;;;;;6218648;23;20016;-91
2023/08/17 12:07:32;;;;;;;0.10;0.10;;;;;;;;;;6218180;22;20024;-90
2023/08/17 12:09:58;;;;;;;0.15;0.15;;;;;;;;;;6218646;22;20095;-89
2023/08/17 12:12:25;;;;;;;0.20;0.20;;;;;;;;;;6217547;22;20050;-90
2023/08/17 12:14:51;;;;;;;0.20;0.20;;;;;;;;;;6218170;22;20020;-91
2023/08/17 12:17:18;;;;;;;0.10;0.10;;;;;;;;;;6217709;22;20489;-90
2023/08/17 12:19:44;;;;;;;0.10;0.10;;;;;;;;;;6217170;22;20060;-92
2023/08/17 12:22:14;;;;;;;0.10;0.10;;;;;;;;;;6242741;23;20382;-90
2023/08/17 12:24:40;;;;;;;0.10;0.10;;;;;;;;;;6217305;22;20053;-91
2023/08/17 12:27:06;;;;;;;0.10;0.10;;;;;;;;;;6242855;22;20020;-91
2023/08/17 12:29:32;;;;;;;0.10;0.10;;;;;;;;;;6217857;22;20020;-90
2023/08/17 12:31:59;;;;;;;0.10;0.10;;;;;;;;;;6217944;22;20496;-90
2023/08/17 12:34:25;;;;;;;0.10;0.10;;;;;;;;;;6216933;22;20035;-91
2023/08/17 12:36:51;;;;;;;0.10;0.10;;;;;;;;;;6217786;22;20020;-91
2023/08/17 12:39:17;;;;;;;0.20;0.20;;;;;;;;;;6217292;22;20477;-90
2023/08/17 12:41:44;;;;;;;0.10;0.10;;;;;;;;;;6217692;22;20069;-91
2023/08/17 12:44:13;;;;;;;0.10;0.10;;;;;;;;;;6219238;22;20058;-92
2023/08/17 12:46:40;;;;;;;0.13;0.13;;;;;;;;;;6220472;23;20052;-92
2023/08/17 12:49:06;;;;;;;0.10;0.10;;;;;;;;;;6221859;22;20047;-94
2023/08/17 12:51:33;;;;;;;0.10;0.10;;;;;;;;;;6220396;22;20024;-92
2023/08/17 12:56:53;;;;;;;0.30;0.30;;;;;;;;;;6248537;23;20030;-94
2023/08/17 12:59:19;;;;;;;0.20;0.20;;;;;;;;;;6223071;22;20016;-92
2023/08/17 13:01:49;;;;;;;0.10;0.10;;;;;;;;;;6227633;22;20327;-95
2023/08/17 13:04:16;;;;;;;0.10;0.10;;;;;;;;;;6226376;22;20438;-93
2023/08/17 13:06:42;;;;;;;0.10;0.10;;;;;;;;;;6228709;22;20019;-94
2023/08/17 13:09:08;;;;;;;0.30;0.30;;;;;;;;;;6228966;22;20019;-93
2023/08/17 13:11:34;;;;;;;0.13;0.13;;;;;;;;;;6223049;22;20055;-90
2023/08/17 13:14:00;;;;;;;0.10;0.10;;;;;;;;;;6223373;22;20034;-91
2023/08/17 13:16:26;;;;;;;0.10;0.10;;;;;;;;;;6223782;22;20015;-92
2023/08/17 13:18:52;;;;;;;0.10;0.10;;;;;;;;;;6223021;22;20069;-91
2023/08/17 13:21:19;;;;;;;0.13;0.13;;;;;;;;;;6248058;22;20064;-93
2023/08/17 13:23:45;;;;;;;0.10;0.10;;;;;;;;;;6223715;22;20016;-93
2023/08/17 13:26:11;;;;;;;0.10;0.10;;;;;;;;;;6198954;22;20022;-92
2023/08/17 13:28:38;;;;;;;0.10;0.10;;;;;;;;;;6222209;22;20019;-90
2023/08/17 13:31:05;;;;;;;0.20;0.20;;;;;;;;;;6222262;22;20022;-90
2023/08/17 13:33:32;;;;;;;0.08;0.08;;;;;;;;;;6222785;22;20015;-92
2023/08/17 13:35:58;;;;;;;0.20;0.20;;;;;;;;;;6247816;22;20445;-91
2023/08/17 13:38:24;;;;;;;0.10;0.10;;;;;;;;;;6221567;22;20020;-89
2023/08/17 13:40:52;;;;;;;0.00;0.00;;;;;;;;;;6221394;22;20043;-89
2023/08/17 13:43:18;;;;;;;0.10;0.10;;;;;;;;;;6220463;22;20018;-94
2023/08/17 13:45:44;;;;;;;0.10;0.10;;;;;;;;;;6221800;22;20016;-91
2023/08/17 13:48:10;;;;;;;0.20;0.20;;;;;;;;;;6221127;22;20011;-90
2023/08/17 13:50:38;;;;;;;0.10;0.10;;;;;;;;;;6222200;22;20019;-90
2023/08/17 13:53:04;;;;;;;0.10;0.10;;;;;;;;;;6245922;22;20020;-90
2023/08/17 13:55:31;;;;;;;0.20;0.20;;;;;;;;;;6197161;22;20039;-90
2023/08/17 13:57:58;;;;;;;0.13;0.13;;;;;;;;;;6221639;22;20030;-90
2023/08/17 14:00:24;;;;;;;0.10;0.10;;;;;;;;;;6207736;22;20012;-88
2023/08/17 14:02:50;;;;;;;0.17;0.17;;;;;;;;;;6190810;23;20438;-89
2023/08/17 14:05:16;;;;;;;0.10;0.10;;;;;;;;;;6217010;23;20023;-90
2023/08/17 14:07:42;;;;;;;0.10;0.10;;;;;;;;;;6191457;23;20020;-89
2023/08/17 14:10:09;;;;;;;0.10;0.10;;;;;;;;;;6191551;23;20076;-91
2023/08/17 14:12:35;;;;;;;0.00;0.00;;;;;;;;;;6190830;23;20027;-91
2023/08/17 14:15:01;;;;;;;0.00;0.00;;;;;;;;;;6190955;22;20103;-90
2023/08/17 14:17:27;;;;;;;0.15;0.15;;;;;;;;;;6190939;23;20052;-91
2023/08/17 14:19:54;;;;;;;0.10;0.10;;;;;;;;;;6216957;23;20062;-90
2023/08/17 14:22:20;;;;;;;0.10;0.10;;;;;;;;;;6191281;22;20017;-90
2023/08/17 14:24:46;;;;;;;0.13;0.13;;;;;;;;;;6191952;23;20016;-90
2023/08/17 14:27:13;;;;;;;0.20;0.20;;;;;;;;;;6192324;22;20020;-91
2023/08/17 14:29:39;;;;;;;0.10;0.10;;;;;;;;;;6191823;23;20374;-92
2023/08/17 14:32:05;;;;;;;0.10;0.10;;;;;;;;;;6191719;23;20023;-90
2023/08/17 14:34:32;;;;;;;0.08;0.08;;;;;;;;;;6192618;22;20450;-89
2023/08/17 14:36:58;;;;;;;0.00;0.00;;;;;;;;;;6192011;22;20012;-90
2023/08/17 14:39:24;;;;;;;0.10;0.10;;;;;;;;;;6191830;23;20012;-90
2023/08/17 14:41:52;;;;;;;0.10;0.10;;;;;;;;;;6191198;23;20017;-91
2023/08/17 14:44:20;;;;;;;0.10;0.10;;;;;;;;;;6191493;22;20016;-90
2023/08/17 14:46:47;;;;;;;0.10;0.10;;;;;;;;;;6216564;23;20065;-94